WordPress database error: []
INSERT INTO `taf` (`ID`, `ICAO`, `datetime`, `reading`, `dayfrom`, `hourfrom`, `dayto`, `hourto`, `direction`, `direction_varmin`, `direction_varmax`, `windspeed`, `windspeed_gusts`, `created`) VALUES (NULL, 'EDDF', '2017-07-26 17:00:00', 'EDDF 261700Z 2618/2724 29009KT 9999 SCT040 BECMG 2618/2621 20005KT BECMG 2700/2703 BKN020 TEMPO 2701/2706 BKN010 PROB30 TEMPO 2702/2706 3000 RADZ SCT004 BKN006 BECMG 2706/2709 22010KT SCT030', '26', '18', '27', '24', '290', '', '', '9', '', '2017-07-27 02:51:42')

TAF RAW:EDDF 261700Z 2618/2724 29009KT 9999 SCT040 BECMG 2618/2621 20005KT BECMG 2700/2703 BKN020 TEMPO 2701/2706 BKN010 PROB30 TEMPO 2702/2706 3000 RADZ SCT004 BKN006 BECMG 2706/2709 22010KT SCT030
-----------------------------------------------------------------------------------------------------------------------------------------------------------------------------
'datetime':2017-07-26 17:00:00
'ICAO':EDDF
'reading':
'dayfrom':26
'hourfrom':18
'dayto':27
'hourto':24
'direction':290
'direction_varmin':
'direction_varmax':
'windspeed':9
'windspeed_gusts':
'created':2017-07-27 02:51:42